sensor_id;sensor_type;location;lat;lon;timestamp;P1;durP1;ratioP1;P2;durP2;ratioP2
19535;SDS011;9913;51.168;4.124;2023-05-24T00:01:02;7.67;;;3.30;;
19535;SDS011;9913;51.168;4.124;2023-05-24T00:03:30;11.03;;;4.10;;
19535;SDS011;9913;51.168;4.124;2023-05-24T00:06:00;9.43;;;3.53;;
19535;SDS011;9913;51.168;4.124;2023-05-24T00:08:29;10.73;;;3.73;;
19535;SDS011;9913;51.168;4.124;2023-05-24T00:10:59;11.33;;;4.60;;
19535;SDS011;9913;51.168;4.124;2023-05-24T00:13:27;11.73;;;3.47;;
19535;SDS011;9913;51.168;4.124;2023-05-24T00:15:55;11.83;;;3.73;;
19535;SDS011;9913;51.168;4.124;2023-05-24T00:18:23;11.30;;;4.20;;
19535;SDS011;9913;51.168;4.124;2023-05-24T00:20:52;9.63;;;3.67;;
19535;SDS011;9913;51.168;4.124;2023-05-24T00:23:22;9.70;;;3.80;;
19535;SDS011;9913;51.168;4.124;2023-05-24T00:25:54;12.67;;;4.10;;
19535;SDS011;9913;51.168;4.124;2023-05-24T00:28:24;9.03;;;3.80;;
19535;SDS011;9913;51.168;4.124;2023-05-24T00:30:52;9.87;;;3.30;;
19535;SDS011;9913;51.168;4.124;2023-05-24T00:33:21;10.37;;;4.20;;
19535;SDS011;9913;51.168;4.124;2023-05-24T00:35:50;9.33;;;3.53;;
19535;SDS011;9913;51.168;4.124;2023-05-24T00:38:22;10.47;;;3.77;;
19535;SDS011;9913;51.168;4.124;2023-05-24T00:40:51;14.17;;;4.83;;
19535;SDS011;9913;51.168;4.124;2023-05-24T00:43:22;10.23;;;4.30;;
19535;SDS011;9913;51.168;4.124;2023-05-24T00:45:54;15.93;;;4.73;;
19535;SDS011;9913;51.168;4.124;2023-05-24T00:48:39;10.50;;;4.60;;
19535;SDS011;9913;51.168;4.124;2023-05-24T00:51:07;10.30;;;3.87;;
19535;SDS011;9913;51.168;4.124;2023-05-24T00:53:36;13.13;;;4.20;;
19535;SDS011;9913;51.168;4.124;2023-05-24T00:56:04;10.97;;;4.73;;
19535;SDS011;9913;51.168;4.124;2023-05-24T00:58:34;9.33;;;4.10;;
19535;SDS011;9913;51.168;4.124;2023-05-24T01:01:04;12.33;;;4.50;;
19535;SDS011;9913;51.168;4.124;2023-05-24T01:03:32;8.47;;;3.83;;
19535;SDS011;9913;51.168;4.124;2023-05-24T01:06:03;12.57;;;4.10;;
19535;SDS011;9913;51.168;4.124;2023-05-24T01:08:39;11.13;;;4.33;;
19535;SDS011;9913;51.168;4.124;2023-05-24T01:11:37;10.87;;;4.50;;
19535;SDS011;9913;51.168;4.124;2023-05-24T01:14:16;14.23;;;4.53;;
19535;SDS011;9913;51.168;4.124;2023-05-24T01:16:51;9.80;;;4.80;;
19535;SDS011;9913;51.168;4.124;2023-05-24T01:19:36;10.67;;;4.43;;
19535;SDS011;9913;51.168;4.124;2023-05-24T01:22:12;9.90;;;4.60;;
19535;SDS011;9913;51.168;4.124;2023-05-24T01:24:54;14.23;;;4.73;;
19535;SDS011;9913;51.168;4.124;2023-05-24T01:27:32;12.10;;;4.80;;
19535;SDS011;9913;51.168;4.124;2023-05-24T01:30:01;11.77;;;4.37;;
19535;SDS011;9913;51.168;4.124;2023-05-24T01:32:30;14.47;;;4.60;;
19535;SDS011;9913;51.168;4.124;2023-05-24T01:34:59;14.27;;;4.30;;
19535;SDS011;9913;51.168;4.124;2023-05-24T01:37:27;8.90;;;4.20;;
19535;SDS011;9913;51.168;4.124;2023-05-24T01:39:55;11.43;;;4.60;;
19535;SDS011;9913;51.168;4.124;2023-05-24T01:42:25;9.70;;;4.07;;
19535;SDS011;9913;51.168;4.124;2023-05-24T01:44:56;8.70;;;4.10;;
19535;SDS011;9913;51.168;4.124;2023-05-24T01:47:33;14.73;;;4.57;;
19535;SDS011;9913;51.168;4.124;2023-05-24T01:50:16;11.23;;;4.50;;
19535;SDS011;9913;51.168;4.124;2023-05-24T01:52:50;11.77;;;4.30;;
19535;SDS011;9913;51.168;4.124;2023-05-24T01:55:20;12.30;;;5.07;;
19535;SDS011;9913;51.168;4.124;2023-05-24T01:57:49;9.73;;;3.93;;
19535;SDS011;9913;51.168;4.124;2023-05-24T02:00:19;9.73;;;4.73;;
19535;SDS011;9913;51.168;4.124;2023-05-24T02:02:52;9.90;;;4.10;;
19535;SDS011;9913;51.168;4.124;2023-05-24T02:05:21;9.60;;;3.83;;
19535;SDS011;9913;51.168;4.124;2023-05-24T02:07:50;9.90;;;4.03;;
19535;SDS011;9913;51.168;4.124;2023-05-24T02:10:23;13.63;;;5.10;;
19535;SDS011;9913;51.168;4.124;2023-05-24T02:12:52;9.80;;;4.17;;
19535;SDS011;9913;51.168;4.124;2023-05-24T02:15:21;10.97;;;4.60;;
19535;SDS011;9913;51.168;4.124;2023-05-24T02:17:50;8.67;;;4.07;;
19535;SDS011;9913;51.168;4.124;2023-05-24T02:20:20;13.87;;;4.27;;
19535;SDS011;9913;51.168;4.124;2023-05-24T02:22:49;8.97;;;4.37;;
19535;SDS011;9913;51.168;4.124;2023-05-24T02:25:17;11.40;;;4.30;;
19535;SDS011;9913;51.168;4.124;2023-05-24T02:27:46;11.17;;;4.67;;
19535;SDS011;9913;51.168;4.124;2023-05-24T02:30:14;11.07;;;4.37;;
19535;SDS011;9913;51.168;4.124;2023-05-24T02:32:44;11.37;;;4.83;;
19535;SDS011;9913;51.168;4.124;2023-05-24T02:35:12;10.07;;;4.47;;
19535;SDS011;9913;51.168;4.124;2023-05-24T02:37:41;10.20;;;4.30;;
19535;SDS011;9913;51.168;4.124;2023-05-24T02:40:10;10.43;;;5.20;;
19535;SDS011;9913;51.168;4.124;2023-05-24T02:42:39;13.63;;;4.83;;
19535;SDS011;9913;51.168;4.124;2023-05-24T02:45:07;12.07;;;4.37;;
19535;SDS011;9913;51.168;4.124;2023-05-24T02:47:36;11.03;;;4.40;;
19535;SDS011;9913;51.168;4.124;2023-05-24T02:50:06;10.23;;;3.60;;
19535;SDS011;9913;51.168;4.124;2023-05-24T02:52:35;10.37;;;4.13;;
19535;SDS011;9913;51.168;4.124;2023-05-24T02:55:04;9.40;;;5.17;;
19535;SDS011;9913;51.168;4.124;2023-05-24T02:57:34;10.57;;;4.40;;
19535;SDS011;9913;51.168;4.124;2023-05-24T03:00:03;13.43;;;4.57;;
19535;SDS011;9913;51.168;4.124;2023-05-24T03:02:35;8.53;;;3.93;;
19535;SDS011;9913;51.168;4.124;2023-05-24T03:05:06;10.23;;;4.03;;
19535;SDS011;9913;51.168;4.124;2023-05-24T03:07:35;8.40;;;4.27;;
19535;SDS011;9913;51.168;4.124;2023-05-24T03:10:05;7.67;;;4.27;;
19535;SDS011;9913;51.168;4.124;2023-05-24T03:12:34;7.83;;;3.73;;
19535;SDS011;9913;51.168;4.124;2023-05-24T03:15:02;11.10;;;4.37;;
19535;SDS011;9913;51.168;4.124;2023-05-24T03:17:31;13.40;;;5.90;;
19535;SDS011;9913;51.168;4.124;2023-05-24T03:20:00;11.17;;;4.17;;
19535;SDS011;9913;51.168;4.124;2023-05-24T03:22:31;11.87;;;4.50;;
19535;SDS011;9913;51.168;4.124;2023-05-24T03:25:01;10.47;;;5.13;;
19535;SDS011;9913;51.168;4.124;2023-05-24T03:27:30;14.70;;;4.83;;
19535;SDS011;9913;51.168;4.124;2023-05-24T03:29:58;7.93;;;4.27;;
19535;SDS011;9913;51.168;4.124;2023-05-24T03:32:29;12.23;;;4.90;;
19535;SDS011;9913;51.168;4.124;2023-05-24T03:34:58;11.00;;;5.00;;
19535;SDS011;9913;51.168;4.124;2023-05-24T03:37:27;14.53;;;5.37;;
19535;SDS011;9913;51.168;4.124;2023-05-24T03:39:57;12.60;;;5.20;;
19535;SDS011;9913;51.168;4.124;2023-05-24T03:42:48;13.93;;;5.73;;
19535;SDS011;9913;51.168;4.124;2023-05-24T03:45:20;11.00;;;5.30;;
19535;SDS011;9913;51.168;4.124;2023-05-24T03:48:03;13.30;;;5.83;;
19535;SDS011;9913;51.168;4.124;2023-05-24T03:50:33;14.60;;;5.90;;
19535;SDS011;9913;51.168;4.124;2023-05-24T03:53:01;13.20;;;5.67;;
19535;SDS011;9913;51.168;4.124;2023-05-24T03:55:31;12.73;;;5.73;;
19535;SDS011;9913;51.168;4.124;2023-05-24T03:57:59;15.43;;;5.70;;
19535;SDS011;9913;51.168;4.124;2023-05-24T04:00:27;14.03;;;5.30;;
19535;SDS011;9913;51.168;4.124;2023-05-24T04:02:56;10.63;;;5.03;;
19535;SDS011;9913;51.168;4.124;2023-05-24T04:05:27;15.67;;;4.80;;
19535;SDS011;9913;51.168;4.124;2023-05-24T04:07:56;15.13;;;5.00;;
19535;SDS011;9913;51.168;4.124;2023-05-24T04:10:34;15.30;;;5.20;;
19535;SDS011;9913;51.168;4.124;2023-05-24T04:13:02;12.43;;;5.47;;
19535;SDS011;9913;51.168;4.124;2023-05-24T04:15:34;16.70;;;5.77;;
19535;SDS011;9913;51.168;4.124;2023-05-24T04:18:03;11.53;;;4.90;;
19535;SDS011;9913;51.168;4.124;2023-05-24T04:20:33;10.43;;;4.50;;
19535;SDS011;9913;51.168;4.124;2023-05-24T04:23:02;12.77;;;5.43;;
19535;SDS011;9913;51.168;4.124;2023-05-24T04:25:30;14.37;;;5.47;;
19535;SDS011;9913;51.168;4.124;2023-05-24T04:28:00;12.60;;;5.40;;
19535;SDS011;9913;51.168;4.124;2023-05-24T04:30:31;13.43;;;5.80;;
19535;SDS011;9913;51.168;4.124;2023-05-24T04:32:59;11.47;;;5.63;;
19535;SDS011;9913;51.168;4.124;2023-05-24T04:35:28;13.93;;;6.00;;
19535;SDS011;9913;51.168;4.124;2023-05-24T04:37:57;12.43;;;5.63;;
19535;SDS011;9913;51.168;4.124;2023-05-24T04:40:25;12.00;;;5.67;;
19535;SDS011;9913;51.168;4.124;2023-05-24T04:42:56;11.27;;;5.73;;
19535;SDS011;9913;51.168;4.124;2023-05-24T04:45:26;13.20;;;5.47;;
19535;SDS011;9913;51.168;4.124;2023-05-24T04:47:56;11.00;;;5.90;;
19535;SDS011;9913;51.168;4.124;2023-05-24T04:50:24;9.07;;;5.40;;
19535;SDS011;9913;51.168;4.124;2023-05-24T04:52:52;11.87;;;5.73;;
19535;SDS011;9913;51.168;4.124;2023-05-24T04:55:21;11.63;;;5.30;;
19535;SDS011;9913;51.168;4.124;2023-05-24T04:57:49;16.97;;;7.87;;
19535;SDS011;9913;51.168;4.124;2023-05-24T05:00:17;14.63;;;7.13;;
19535;SDS011;9913;51.168;4.124;2023-05-24T05:02:48;14.50;;;6.30;;
19535;SDS011;9913;51.168;4.124;2023-05-24T05:05:17;16.00;;;6.63;;
19535;SDS011;9913;51.168;4.124;2023-05-24T05:07:45;13.53;;;6.57;;
19535;SDS011;9913;51.168;4.124;2023-05-24T05:10:14;12.43;;;5.60;;
19535;SDS011;9913;51.168;4.124;2023-05-24T05:12:42;13.37;;;5.97;;
19535;SDS011;9913;51.168;4.124;2023-05-24T05:15:10;13.97;;;5.53;;
19535;SDS011;9913;51.168;4.124;2023-05-24T05:17:39;15.10;;;5.73;;
19535;SDS011;9913;51.168;4.124;2023-05-24T05:20:09;12.13;;;5.17;;
19535;SDS011;9913;51.168;4.124;2023-05-24T05:22:37;15.57;;;6.70;;
19535;SDS011;9913;51.168;4.124;2023-05-24T05:25:06;14.83;;;6.20;;
19535;SDS011;9913;51.168;4.124;2023-05-24T05:27:34;15.50;;;5.90;;
19535;SDS011;9913;51.168;4.124;2023-05-24T05:30:03;11.87;;;6.00;;
19535;SDS011;9913;51.168;4.124;2023-05-24T05:32:32;13.33;;;5.70;;
19535;SDS011;9913;51.168;4.124;2023-05-24T05:35:01;11.23;;;5.30;;
19535;SDS011;9913;51.168;4.124;2023-05-24T05:37:30;12.23;;;5.43;;
19535;SDS011;9913;51.168;4.124;2023-05-24T05:39:59;12.27;;;4.93;;
19535;SDS011;9913;51.168;4.124;2023-05-24T05:42:27;15.03;;;6.07;;
19535;SDS011;9913;51.168;4.124;2023-05-24T05:44:55;10.63;;;5.07;;
19535;SDS011;9913;51.168;4.124;2023-05-24T05:47:24;16.97;;;5.97;;
19535;SDS011;9913;51.168;4.124;2023-05-24T05:49:52;10.80;;;5.23;;
19535;SDS011;9913;51.168;4.124;2023-05-24T05:52:20;11.57;;;4.80;;
19535;SDS011;9913;51.168;4.124;2023-05-24T05:54:50;16.30;;;5.40;;
19535;SDS011;9913;51.168;4.124;2023-05-24T05:57:18;13.70;;;6.07;;
19535;SDS011;9913;51.168;4.124;2023-05-24T05:59:50;20.23;;;6.60;;
19535;SDS011;9913;51.168;4.124;2023-05-24T06:02:18;16.57;;;6.30;;
19535;SDS011;9913;51.168;4.124;2023-05-24T06:04:48;12.43;;;4.23;;
19535;SDS011;9913;51.168;4.124;2023-05-24T06:07:17;11.70;;;4.87;;
19535;SDS011;9913;51.168;4.124;2023-05-24T06:09:45;15.33;;;5.73;;
19535;SDS011;9913;51.168;4.124;2023-05-24T06:12:15;12.77;;;5.43;;
19535;SDS011;9913;51.168;4.124;2023-05-24T06:14:43;11.20;;;4.33;;
19535;SDS011;9913;51.168;4.124;2023-05-24T06:17:13;11.27;;;4.50;;
19535;SDS011;9913;51.168;4.124;2023-05-24T06:19:42;11.70;;;5.07;;
19535;SDS011;9913;51.168;4.124;2023-05-24T06:22:10;11.87;;;4.73;;
19535;SDS011;9913;51.168;4.124;2023-05-24T06:24:38;13.73;;;4.73;;
19535;SDS011;9913;51.168;4.124;2023-05-24T06:27:06;15.97;;;5.73;;
19535;SDS011;9913;51.168;4.124;2023-05-24T06:29:36;11.50;;;4.50;;
19535;SDS011;9913;51.168;4.124;2023-05-24T06:32:05;16.43;;;5.77;;
19535;SDS011;9913;51.168;4.124;2023-05-24T06:34:33;13.90;;;6.13;;
19535;SDS011;9913;51.168;4.124;2023-05-24T06:37:01;20.37;;;6.50;;
19535;SDS011;9913;51.168;4.124;2023-05-24T06:39:30;13.33;;;5.43;;
19535;SDS011;9913;51.168;4.124;2023-05-24T06:41:58;15.70;;;5.70;;
19535;SDS011;9913;51.168;4.124;2023-05-24T06:44:30;14.93;;;5.40;;
19535;SDS011;9913;51.168;4.124;2023-05-24T06:47:01;14.03;;;5.60;;
19535;SDS011;9913;51.168;4.124;2023-05-24T06:49:31;16.20;;;6.80;;
19535;SDS011;9913;51.168;4.124;2023-05-24T06:52:00;18.10;;;5.40;;
19535;SDS011;9913;51.168;4.124;2023-05-24T06:54:28;12.17;;;5.03;;
19535;SDS011;9913;51.168;4.124;2023-05-24T06:56:56;16.57;;;5.07;;
19535;SDS011;9913;51.168;4.124;2023-05-24T06:59:25;16.80;;;5.13;;
19535;SDS011;9913;51.168;4.124;2023-05-24T07:01:53;20.20;;;5.80;;
19535;SDS011;9913;51.168;4.124;2023-05-24T07:04:26;9.87;;;5.63;;
19535;SDS011;9913;51.168;4.124;2023-05-24T07:06:55;14.57;;;5.33;;
19535;SDS011;9913;51.168;4.124;2023-05-24T07:09:24;14.80;;;5.40;;
19535;SDS011;9913;51.168;4.124;2023-05-24T07:11:52;16.73;;;5.50;;
19535;SDS011;9913;51.168;4.124;2023-05-24T07:14:20;16.37;;;5.60;;
19535;SDS011;9913;51.168;4.124;2023-05-24T07:16:51;16.30;;;5.17;;
19535;SDS011;9913;51.168;4.124;2023-05-24T07:19:23;14.40;;;5.40;;
19535;SDS011;9913;51.168;4.124;2023-05-24T07:21:56;15.40;;;6.05;;
19535;SDS011;9913;51.168;4.124;2023-05-24T07:24:24;12.87;;;4.90;;
19535;SDS011;9913;51.168;4.124;2023-05-24T07:26:53;15.82;;;5.38;;
19535;SDS011;9913;51.168;4.124;2023-05-24T07:29:22;12.87;;;5.33;;
19535;SDS011;9913;51.168;4.124;2023-05-24T07:31:52;13.65;;;5.85;;
19535;SDS011;9913;51.168;4.124;2023-05-24T07:34:22;13.43;;;4.97;;
19535;SDS011;9913;51.168;4.124;2023-05-24T07:36:53;14.00;;;4.78;;
19535;SDS011;9913;51.168;4.124;2023-05-24T07:39:24;11.40;;;4.78;;
19535;SDS011;9913;51.168;4.124;2023-05-24T07:41:52;11.90;;;4.68;;
19535;SDS011;9913;51.168;4.124;2023-05-24T07:44:21;13.00;;;4.50;;
19535;SDS011;9913;51.168;4.124;2023-05-24T07:46:49;12.38;;;4.38;;
19535;SDS011;9913;51.168;4.124;2023-05-24T07:49:18;10.13;;;4.68;;
19535;SDS011;9913;51.168;4.124;2023-05-24T07:51:46;13.55;;;5.28;;
19535;SDS011;9913;51.168;4.124;2023-05-24T07:54:15;12.98;;;4.93;;
19535;SDS011;9913;51.168;4.124;2023-05-24T07:56:44;12.63;;;5.13;;
19535;SDS011;9913;51.168;4.124;2023-05-24T07:59:13;14.88;;;4.68;;
19535;SDS011;9913;51.168;4.124;2023-05-24T08:01:41;13.95;;;5.95;;
19535;SDS011;9913;51.168;4.124;2023-05-24T08:04:09;13.25;;;5.15;;
19535;SDS011;9913;51.168;4.124;2023-05-24T08:06:38;15.68;;;4.95;;
19535;SDS011;9913;51.168;4.124;2023-05-24T08:09:06;16.35;;;5.47;;
19535;SDS011;9913;51.168;4.124;2023-05-24T08:11:35;18.27;;;6.70;;
19535;SDS011;9913;51.168;4.124;2023-05-24T08:14:05;12.32;;;5.28;;
19535;SDS011;9913;51.168;4.124;2023-05-24T08:16:33;12.43;;;5.20;;
19535;SDS011;9913;51.168;4.124;2023-05-24T08:19:01;15.45;;;5.97;;
19535;SDS011;9913;51.168;4.124;2023-05-24T08:21:30;13.35;;;4.80;;
19535;SDS011;9913;51.168;4.124;2023-05-24T08:23:59;12.82;;;4.63;;
19535;SDS011;9913;51.168;4.124;2023-05-24T08:26:27;13.60;;;5.30;;
19535;SDS011;9913;51.168;4.124;2023-05-24T08:28:55;15.45;;;4.85;;
19535;SDS011;9913;51.168;4.124;2023-05-24T08:31:25;13.07;;;4.63;;
19535;SDS011;9913;51.168;4.124;2023-05-24T08:33:54;12.95;;;5.03;;
19535;SDS011;9913;51.168;4.124;2023-05-24T08:36:23;12.10;;;5.65;;
19535;SDS011;9913;51.168;4.124;2023-05-24T08:38:51;13.82;;;3.80;;
19535;SDS011;9913;51.168;4.124;2023-05-24T08:41:19;8.85;;;3.58;;
19535;SDS011;9913;51.168;4.124;2023-05-24T08:43:48;11.02;;;4.60;;
19535;SDS011;9913;51.168;4.124;2023-05-24T08:46:17;12.60;;;4.50;;
19535;SDS011;9913;51.168;4.124;2023-05-24T08:48:47;13.07;;;4.80;;
19535;SDS011;9913;51.168;4.124;2023-05-24T08:51:15;16.02;;;4.90;;
19535;SDS011;9913;51.168;4.124;2023-05-24T08:53:44;13.05;;;4.60;;
19535;SDS011;9913;51.168;4.124;2023-05-24T08:56:16;12.73;;;4.50;;
19535;SDS011;9913;51.168;4.124;2023-05-24T08:58:44;10.25;;;3.83;;
19535;SDS011;9913;51.168;4.124;2023-05-24T09:01:13;12.75;;;4.60;;
19535;SDS011;9913;51.168;4.124;2023-05-24T09:03:43;10.07;;;4.00;;
19535;SDS011;9913;51.168;4.124;2023-05-24T09:06:15;12.23;;;5.30;;
19535;SDS011;9913;51.168;4.124;2023-05-24T09:08:45;11.40;;;4.78;;
19535;SDS011;9913;51.168;4.124;2023-05-24T09:11:15;12.20;;;4.57;;
19535;SDS011;9913;51.168;4.124;2023-05-24T09:13:45;16.85;;;5.32;;
19535;SDS011;9913;51.168;4.124;2023-05-24T09:16:14;8.13;;;3.65;;
19535;SDS011;9913;51.168;4.124;2023-05-24T09:18:43;7.88;;;3.65;;
19535;SDS011;9913;51.168;4.124;2023-05-24T09:21:12;11.55;;;4.07;;
19535;SDS011;9913;51.168;4.124;2023-05-24T09:23:41;10.63;;;4.72;;
19535;SDS011;9913;51.168;4.124;2023-05-24T09:26:11;13.38;;;4.47;;
19535;SDS011;9913;51.168;4.124;2023-05-24T09:28:40;9.77;;;3.90;;
19535;SDS011;9913;51.168;4.124;2023-05-24T09:31:09;12.68;;;4.68;;
19535;SDS011;9913;51.168;4.124;2023-05-24T09:33:39;9.07;;;3.97;;
19535;SDS011;9913;51.168;4.124;2023-05-24T09:36:08;13.88;;;4.07;;
19535;SDS011;9913;51.168;4.124;2023-05-24T09:38:37;10.25;;;3.75;;
19535;SDS011;9913;51.168;4.124;2023-05-24T09:41:06;12.60;;;4.93;;
19535;SDS011;9913;51.168;4.124;2023-05-24T09:43:45;8.63;;;4.18;;
19535;SDS011;9913;51.168;4.124;2023-05-24T09:46:15;10.68;;;3.92;;
19535;SDS011;9913;51.168;4.124;2023-05-24T09:48:54;11.38;;;4.15;;
19535;SDS011;9913;51.168;4.124;2023-05-24T09:51:23;10.75;;;3.95;;
19535;SDS011;9913;51.168;4.124;2023-05-24T09:53:55;9.13;;;3.83;;
19535;SDS011;9913;51.168;4.124;2023-05-24T09:56:25;8.85;;;3.70;;
19535;SDS011;9913;51.168;4.124;2023-05-24T09:58:53;8.40;;;4.13;;
19535;SDS011;9913;51.168;4.124;2023-05-24T10:01:22;10.75;;;3.72;;
19535;SDS011;9913;51.168;4.124;2023-05-24T10:03:52;11.48;;;4.50;;
19535;SDS011;9913;51.168;4.124;2023-05-24T10:06:22;14.52;;;4.28;;
19535;SDS011;9913;51.168;4.124;2023-05-24T10:08:50;10.38;;;4.30;;
19535;SDS011;9913;51.168;4.124;2023-05-24T10:11:20;10.25;;;4.85;;
19535;SDS011;9913;51.168;4.124;2023-05-24T10:13:49;10.88;;;4.97;;
19535;SDS011;9913;51.168;4.124;2023-05-24T10:16:18;11.18;;;4.70;;
19535;SDS011;9913;51.168;4.124;2023-05-24T10:18:47;12.85;;;4.90;;
19535;SDS011;9913;51.168;4.124;2023-05-24T10:21:16;12.32;;;5.00;;
19535;SDS011;9913;51.168;4.124;2023-05-24T10:23:49;9.32;;;4.55;;
19535;SDS011;9913;51.168;4.124;2023-05-24T10:26:19;9.18;;;4.18;;
19535;SDS011;9913;51.168;4.124;2023-05-24T10:28:54;9.63;;;4.65;;
19535;SDS011;9913;51.168;4.124;2023-05-24T10:31:27;11.18;;;4.65;;
19535;SDS011;9913;51.168;4.124;2023-05-24T10:33:58;8.48;;;3.55;;
19535;SDS011;9913;51.168;4.124;2023-05-24T10:36:34;13.75;;;4.43;;
19535;SDS011;9913;51.168;4.124;2023-05-24T10:39:07;9.93;;;3.97;;
19535;SDS011;9913;51.168;4.124;2023-05-24T10:41:38;11.93;;;3.65;;
19535;SDS011;9913;51.168;4.124;2023-05-24T10:44:12;11.40;;;4.05;;
19535;SDS011;9913;51.168;4.124;2023-05-24T10:49:36;10.25;;;4.30;;
19535;SDS011;9913;51.168;4.124;2023-05-24T10:52:06;11.45;;;4.70;;
19535;SDS011;9913;51.168;4.124;2023-05-24T10:54:35;9.55;;;3.78;;
19535;SDS011;9913;51.168;4.124;2023-05-24T10:57:15;10.35;;;4.47;;
19535;SDS011;9913;51.168;4.124;2023-05-24T10:59:51;8.07;;;4.07;;
19535;SDS011;9913;51.168;4.124;2023-05-24T11:02:26;8.13;;;4.00;;
19535;SDS011;9913;51.168;4.124;2023-05-24T11:04:55;10.68;;;4.72;;
19535;SDS011;9913;51.168;4.124;2023-05-24T11:07:26;10.15;;;4.63;;
19535;SDS011;9913;51.168;4.124;2023-05-24T11:09:54;7.07;;;3.70;;
19535;SDS011;9913;51.168;4.124;2023-05-24T11:12:25;10.70;;;3.53;;
19535;SDS011;9913;51.168;4.124;2023-05-24T11:15:01;11.75;;;4.00;;
19535;SDS011;9913;51.168;4.124;2023-05-24T11:17:30;9.20;;;4.72;;
19535;SDS011;9913;51.168;4.124;2023-05-24T11:20:40;13.68;;;4.25;;
19535;SDS011;9913;51.168;4.124;2023-05-24T11:23:10;8.35;;;3.90;;
19535;SDS011;9913;51.168;4.124;2023-05-24T11:25:38;4.97;;;3.00;;
19535;SDS011;9913;51.168;4.124;2023-05-24T11:28:07;10.18;;;3.92;;
19535;SDS011;9913;51.168;4.124;2023-05-24T11:30:39;6.90;;;3.50;;
19535;SDS011;9913;51.168;4.124;2023-05-24T11:33:14;10.25;;;3.65;;
19535;SDS011;9913;51.168;4.124;2023-05-24T11:35:44;10.18;;;3.75;;
19535;SDS011;9913;51.168;4.124;2023-05-24T11:38:13;11.35;;;3.45;;
19535;SDS011;9913;51.168;4.124;2023-05-24T11:40:43;11.45;;;4.30;;
19535;SDS011;9913;51.168;4.124;2023-05-24T11:43:12;8.23;;;3.75;;
19535;SDS011;9913;51.168;4.124;2023-05-24T11:45:44;10.85;;;3.33;;
19535;SDS011;9913;51.168;4.124;2023-05-24T11:48:14;6.32;;;2.85;;
19535;SDS011;9913;51.168;4.124;2023-05-24T11:50:43;6.50;;;3.28;;
19535;SDS011;9913;51.168;4.124;2023-05-24T11:53:16;6.97;;;2.63;;
19535;SDS011;9913;51.168;4.124;2023-05-24T11:55:46;7.82;;;2.67;;
19535;SDS011;9913;51.168;4.124;2023-05-24T11:58:18;10.32;;;3.42;;
19535;SDS011;9913;51.168;4.124;2023-05-24T12:00:51;10.05;;;3.63;;
19535;SDS011;9913;51.168;4.124;2023-05-24T12:03:19;8.23;;;3.20;;
19535;SDS011;9913;51.168;4.124;2023-05-24T12:05:48;10.27;;;4.30;;
19535;SDS011;9913;51.168;4.124;2023-05-24T12:08:17;6.95;;;3.28;;
19535;SDS011;9913;51.168;4.124;2023-05-24T12:10:47;5.72;;;3.22;;
19535;SDS011;9913;51.168;4.124;2023-05-24T12:13:18;8.75;;;3.15;;
19535;SDS011;9913;51.168;4.124;2023-05-24T12:15:50;10.27;;;3.45;;
19535;SDS011;9913;51.168;4.124;2023-05-24T12:18:22;8.75;;;3.67;;
19535;SDS011;9913;51.168;4.124;2023-05-24T12:20:52;6.32;;;2.95;;
19535;SDS011;9913;51.168;4.124;2023-05-24T12:23:22;5.68;;;3.08;;
19535;SDS011;9913;51.168;4.124;2023-05-24T12:25:56;7.57;;;3.17;;
19535;SDS011;9913;51.168;4.124;2023-05-24T12:28:25;7.53;;;3.30;;
19535;SDS011;9913;51.168;4.124;2023-05-24T12:30:55;7.43;;;3.47;;
19535;SDS011;9913;51.168;4.124;2023-05-24T12:33:24;5.53;;;2.88;;
19535;SDS011;9913;51.168;4.124;2023-05-24T12:35:52;6.43;;;3.17;;
19535;SDS011;9913;51.168;4.124;2023-05-24T12:38:22;6.50;;;3.53;;
19535;SDS011;9913;51.168;4.124;2023-05-24T12:40:51;10.40;;;3.38;;
19535;SDS011;9913;51.168;4.124;2023-05-24T12:43:38;9.05;;;3.63;;
19535;SDS011;9913;51.168;4.124;2023-05-24T12:46:11;9.70;;;4.00;;
19535;SDS011;9913;51.168;4.124;2023-05-24T12:48:39;6.65;;;2.85;;
19535;SDS011;9913;51.168;4.124;2023-05-24T12:51:08;10.93;;;4.20;;
19535;SDS011;9913;51.168;4.124;2023-05-24T12:53:37;7.35;;;3.53;;
19535;SDS011;9913;51.168;4.124;2023-05-24T12:56:06;6.47;;;3.28;;
19535;SDS011;9913;51.168;4.124;2023-05-24T12:58:34;8.30;;;3.80;;
19535;SDS011;9913;51.168;4.124;2023-05-24T13:01:03;6.30;;;3.33;;
19535;SDS011;9913;51.168;4.124;2023-05-24T13:03:32;9.43;;;3.75;;
19535;SDS011;9913;51.168;4.124;2023-05-24T13:06:01;10.15;;;4.15;;
19535;SDS011;9913;51.168;4.124;2023-05-24T13:08:30;9.60;;;3.92;;
19535;SDS011;9913;51.168;4.124;2023-05-24T13:10:58;6.45;;;3.35;;
19535;SDS011;9913;51.168;4.124;2023-05-24T13:13:26;9.95;;;3.97;;
19535;SDS011;9913;51.168;4.124;2023-05-24T13:15:55;9.13;;;4.05;;
19535;SDS011;9913;51.168;4.124;2023-05-24T13:18:23;8.75;;;3.50;;
19535;SDS011;9913;51.168;4.124;2023-05-24T13:20:54;6.35;;;3.70;;
19535;SDS011;9913;51.168;4.124;2023-05-24T13:23:23;7.85;;;3.50;;
19535;SDS011;9913;51.168;4.124;2023-05-24T13:25:51;9.60;;;3.50;;
19535;SDS011;9913;51.168;4.124;2023-05-24T13:28:20;8.02;;;3.40;;
19535;SDS011;9913;51.168;4.124;2023-05-24T13:30:48;6.97;;;3.78;;
19535;SDS011;9913;51.168;4.124;2023-05-24T13:33:17;8.13;;;3.28;;
19535;SDS011;9913;51.168;4.124;2023-05-24T13:35:46;6.45;;;2.83;;
19535;SDS011;9913;51.168;4.124;2023-05-24T13:38:16;7.40;;;3.20;;
19535;SDS011;9913;51.168;4.124;2023-05-24T13:40:45;9.52;;;4.07;;
19535;SDS011;9913;51.168;4.124;2023-05-24T13:43:13;7.80;;;3.47;;
19535;SDS011;9913;51.168;4.124;2023-05-24T13:45:42;7.50;;;2.80;;
19535;SDS011;9913;51.168;4.124;2023-05-24T13:48:11;6.38;;;3.22;;
19535;SDS011;9913;51.168;4.124;2023-05-24T13:50:39;7.85;;;3.38;;
19535;SDS011;9913;51.168;4.124;2023-05-24T13:53:08;8.45;;;3.13;;
19535;SDS011;9913;51.168;4.124;2023-05-24T13:55:38;7.20;;;3.17;;
19535;SDS011;9913;51.168;4.124;2023-05-24T13:58:06;7.97;;;3.25;;
19535;SDS011;9913;51.168;4.124;2023-05-24T14:00:34;5.70;;;2.92;;
19535;SDS011;9913;51.168;4.124;2023-05-24T14:03:03;8.25;;;3.50;;
19535;SDS011;9913;51.168;4.124;2023-05-24T14:05:32;6.55;;;2.90;;
19535;SDS011;9913;51.168;4.124;2023-05-24T14:08:00;7.78;;;2.55;;
19535;SDS011;9913;51.168;4.124;2023-05-24T14:10:33;5.45;;;2.65;;
19535;SDS011;9913;51.168;4.124;2023-05-24T14:13:03;7.03;;;2.92;;
19535;SDS011;9913;51.168;4.124;2023-05-24T14:15:36;6.32;;;2.65;;
19535;SDS011;9913;51.168;4.124;2023-05-24T14:18:04;13.15;;;3.40;;
19535;SDS011;9913;51.168;4.124;2023-05-24T14:20:34;8.75;;;3.80;;
19535;SDS011;9913;51.168;4.124;2023-05-24T14:23:05;7.00;;;3.40;;
19535;SDS011;9913;51.168;4.124;2023-05-24T14:25:33;7.28;;;3.53;;
19535;SDS011;9913;51.168;4.124;2023-05-24T14:28:02;7.43;;;3.05;;
19535;SDS011;9913;51.168;4.124;2023-05-24T14:30:34;6.35;;;2.90;;
19535;SDS011;9913;51.168;4.124;2023-05-24T14:33:03;5.10;;;2.70;;
19535;SDS011;9913;51.168;4.124;2023-05-24T14:35:34;7.93;;;2.55;;
19535;SDS011;9913;51.168;4.124;2023-05-24T14:38:06;5.07;;;2.85;;
19535;SDS011;9913;51.168;4.124;2023-05-24T14:40:36;6.10;;;3.05;;
19535;SDS011;9913;51.168;4.124;2023-05-24T14:43:07;7.82;;;3.25;;
19535;SDS011;9913;51.168;4.124;2023-05-24T14:45:36;8.40;;;2.90;;
19535;SDS011;9913;51.168;4.124;2023-05-24T14:48:07;10.00;;;3.50;;
19535;SDS011;9913;51.168;4.124;2023-05-24T14:50:38;5.80;;;2.80;;
19535;SDS011;9913;51.168;4.124;2023-05-24T14:53:07;9.55;;;3.00;;
19535;SDS011;9913;51.168;4.124;2023-05-24T14:55:38;6.70;;;3.33;;
19535;SDS011;9913;51.168;4.124;2023-05-24T14:58:10;7.35;;;3.05;;
19535;SDS011;9913;51.168;4.124;2023-05-24T15:00:40;7.95;;;3.20;;
19535;SDS011;9913;51.168;4.124;2023-05-24T15:03:09;6.85;;;2.92;;
19535;SDS011;9913;51.168;4.124;2023-05-24T15:05:40;6.15;;;2.80;;
19535;SDS011;9913;51.168;4.124;2023-05-24T15:08:09;6.35;;;3.10;;
19535;SDS011;9913;51.168;4.124;2023-05-24T15:10:37;7.03;;;3.10;;
19535;SDS011;9913;51.168;4.124;2023-05-24T15:13:06;6.65;;;3.15;;